CheckWX is a tool to help pilots better visualize weather data.  It is not intended as a substitute for an official pre-flight weather briefing.

18:33:01 UTC

KRUE METAR
Russellville Regional Airport
Russellville, Arkansas, USA
Current

40 mins ago

KRUE 161753Z AUTO VRB06KT 10SM BKN034 13/04 A3008 RMK AO2 SLP181 T01330044 10133 20056 50000
Observed
Feb-16 @ 17:53 UTC
Wind
  • Variable at 6 KTS
Visibility
10 SM
Flight Rules
VFR
Cloud Levels
  • Broken at 3,400' AGL
Temperature
13°C / 55°F
Dewpoint
C / 39°F
Humidity
55%
Altimeter
30.08" Hg
Pressure
1018.62 hPa
Previous

2 hours ago

KRUE 161653Z AUTO VRB03KT 10SM OVC031 12/03 A3010 RMK AO2 SLP189 T01220033
Observed
Feb-16 @ 16:53 UTC
Wind
  • Variable at 3 KTS
Visibility
10 SM
Flight Rules
VFR
Cloud Levels
  • Overcast at 3,100' AGL
Temperature
12°C / 54°F
Dewpoint
C / 37°F
Humidity
54%
Altimeter
30.1" Hg
Pressure
1019.32 hPa
Previous

3 hours ago

KRUE 161553Z AUTO 09005KT 10SM OVC031 11/02 A3008 RMK AO2 SLP182 T01110017
Observed
Feb-16 @ 15:53 UTC
Wind
  • 090° at 5 KTS
Visibility
10 SM
Flight Rules
VFR
Cloud Levels
  • Overcast at 3,100' AGL
Temperature
11°C / 52°F
Dewpoint
C / 36°F
Humidity
54%
Altimeter
30.08" Hg
Pressure
1018.62 hPa